Ana Sayfa
METAR-TAF:

METAR-TAF

Havaalanları :

Vladivostok, Rusya

Enlem: 43-07N, Boylam: 131-56E, yükseklik: 184 m

Güncel hava durumu gözlemi

Rapor saat 19:00 UTC de 33 dakika önce yapıldı.
Rüzgar kuzey/kuzeydoğudan 2 kt
Sıcaklık -20°C
Nem 77%
Basınç 1017 hPa
Görüş mesafesi: 8000 m

METAR: UHWW 181900Z 03001MPS 8000 NSC M20/M23 Q1017 R25L/0///70 NOSIG RMK QFE762

Saat: 05:33 (19:33 UTC)

Tahmin

Rapor saat 17:00 UTC de 2 saat ve 33 dakika önce yapıldı.
Ayın 18'si saat 18 UTC'den ayın 19'si saat 18 UTC'ye kadar geçerli Tahmin
Rüzgar değişken yönden 2 kt
Görüş mesafesi: 3100 m
1300 ft yükseklikte parçalı çok bulutlu
Duman, Pus
Ayın 18'si saat 2200 UTC'den
Rüzgar kuzeydan 6 kt
Görüş mesafesi: 3500 m
1100 ft yükseklikte parçalı bulutlu
1500 ft yükseklikte parçalı çok bulutlu, Kümülonimbus.
hafif kar sağanakları

TAF: UHWW 181700Z 1818/1918 VRB01MPS 3100 FU BR BKN013 FM182200 36003MPS 3500 -SHSN SCT011 BKN015CB

4.000'den fazla havaalanı için hava durumu gözlemleri ve tahminleri (METAR ve TAF raporları).

Kullanılabilir istasyonlar harita üzerinde sarı ve kırmızı noktalarla gösterilir.

İstasyonun adını görmek için fareyi noktanın üzerinde gezdirin.

Sonrasında hava gözlem ve tahminlerini görmek için tıklayın.

Haritayı değiştirmek için: yaklaştırmak için siyah artı işaretli yeşil düğmeye ve uzaklaştırmak için de eksi işaretli düğmeye hızla tıklayın; bitişik haritalar için yeşil okları kullanın.


METAR-TAF: